Terminal Aerodrome Forecast
Issued by NWS

Home | Current Version | Previous Version | Text Only | Print | Product List | Glossary On
Versions: 1 2 3 4 5 6 7 8 9 10 11 12 13
000
FTUS45 KPSR 231720
TAFIWA
TAF
KIWA 231720Z 2318/2418 17010KT P6SM BKN060 BKN080
     FM232000 23012KT P6SM BKN060 BKN080
     FM232200 26012G20KT P6SM BKN050 OVC070
     FM240400 29009KT P6SM FEW080
     FM241000 14004KT P6SM SKC=

USA.gov is the U.S. government's official web portal to all federal, state and local government web resources and services.